Time;durP1;ratioP1;P1;durP2;ratioP2;P2;SDS_P1;SDS_P2;PMS_P1;PMS_P2;Temp;Humidity;BMP_temperature;BMP_pressure;BME280_temperature;BME280_humidity;BME280_pressure;Samples;Min_cycle;Max_cycle;Signal;HPM_P1;HPM_P2
2022/07/22 00:01:49;;;;;;;8.13;6.20;;;18.60;99.90;;;;;;5011507;28;20189;-74
2022/07/22 00:04:14;;;;;;;9.33;6.47;;;18.50;99.90;;;;;;5011287;28;20180;-74
2022/07/22 00:06:40;;;;;;;8.37;5.80;;;18.50;99.90;;;;;;5011110;28;20196;-74
2022/07/22 00:09:06;;;;;;;7.40;6.40;;;18.60;99.90;;;;;;5011113;28;20956;-74
2022/07/22 00:11:31;;;;;;;7.80;5.67;;;18.70;99.90;;;;;;5011049;28;20815;-74
2022/07/22 00:13:57;;;;;;;8.20;5.70;;;18.80;99.90;;;;;;5010914;28;20190;-73
2022/07/22 00:16:22;;;;;;;16.43;7.10;;;18.80;99.90;;;;;;5010843;28;20210;-73
2022/07/22 00:18:48;;;;;;;8.17;6.30;;;18.70;99.90;;;;;;5010844;28;20305;-74
2022/07/22 00:21:14;;;;;;;10.77;6.13;;;18.60;99.90;;;;;;5010948;28;20179;-74
2022/07/22 00:23:39;;;;;;;6.80;6.20;;;18.50;99.90;;;;;;5010795;28;20181;-74
2022/07/22 00:26:05;;;;;;;7.30;6.17;;;18.50;99.90;;;;;;5010960;28;20188;-74
2022/07/22 00:28:31;;;;;;;8.00;6.33;;;18.60;99.90;;;;;;5010727;28;20205;-74
2022/07/22 00:30:56;;;;;;;9.23;6.00;;;18.60;99.90;;;;;;4993058;28;20671;-74
2022/07/22 00:33:22;;;;;;;9.43;6.53;;;18.60;99.90;;;;;;5010731;28;20196;-74
2022/07/22 00:35:48;;;;;;;6.67;5.97;;;18.70;99.90;;;;;;5010598;28;20201;-74
2022/07/22 00:38:14;;;;;;;8.60;7.17;;;18.60;99.90;;;;;;4992982;28;20202;-74
2022/07/22 00:40:40;;;;;;;9.73;7.27;;;18.50;99.90;;;;;;4992631;28;20201;-74
2022/07/22 00:43:05;;;;;;;8.63;6.87;;;18.40;99.90;;;;;;4991953;28;20434;-74
2022/07/22 00:45:31;;;;;;;8.57;6.37;;;18.40;99.90;;;;;;5010735;28;20737;-74
2022/07/22 00:47:56;;;;;;;8.20;6.43;;;18.50;99.90;;;;;;5010404;28;20204;-74
2022/07/22 00:50:23;;;;;;;14.60;6.73;;;18.40;99.90;;;;;;5010486;28;20315;-74
2022/07/22 00:52:49;;;;;;;10.50;6.20;;;18.40;99.90;;;;;;5010519;28;20191;-74
2022/07/22 00:55:15;;;;;;;8.67;7.00;;;18.40;99.90;;;;;;5010390;28;20419;-74
2022/07/22 00:57:41;;;;;;;7.53;6.60;;;18.30;99.90;;;;;;4992522;28;20937;-75
2022/07/22 01:00:11;;;;;;;10.57;6.20;;;18.30;99.90;;;;;;5010556;28;20634;-74
2022/07/22 01:02:37;;;;;;;7.37;6.20;;;18.30;99.90;;;;;;5010102;28;20466;-75
2022/07/22 01:05:03;;;;;;;8.53;7.33;;;18.30;99.90;;;;;;5010238;28;20419;-76
2022/07/22 01:07:28;;;;;;;11.53;7.13;;;18.30;99.90;;;;;;4976281;28;20211;-74
2022/07/22 01:09:54;;;;;;;8.80;6.50;;;18.30;99.90;;;;;;5010205;28;20436;-74
2022/07/22 01:12:19;;;;;;;7.33;6.50;;;18.30;99.90;;;;;;5010106;28;20695;-72
2022/07/22 01:14:45;;;;;;;9.60;6.50;;;18.30;99.90;;;;;;5010227;28;20867;-73
2022/07/22 01:17:11;;;;;;;9.00;6.40;;;18.30;99.90;;;;;;5010130;28;20213;-73
2022/07/22 01:19:37;;;;;;;11.40;6.23;;;18.20;99.90;;;;;;5010586;28;20181;-72
2022/07/22 01:22:06;;;;;;;6.97;6.27;;;18.20;99.90;;;;;;5010139;28;20615;-73
2022/07/22 01:24:32;;;;;;;7.53;6.83;;;18.10;99.90;;;;;;5010044;28;20442;-73
2022/07/22 01:26:58;;;;;;;7.77;6.57;;;18.10;99.90;;;;;;5010161;28;20447;-73
2022/07/22 01:29:23;;;;;;;8.03;6.57;;;18.00;99.90;;;;;;5010299;28;20431;-73
2022/07/22 01:31:49;;;;;;;7.40;6.70;;;18.00;99.90;;;;;;4992836;28;20430;-73
2022/07/22 01:34:15;;;;;;;8.07;7.27;;;18.00;99.90;;;;;;5010347;28;20199;-73
2022/07/22 01:36:41;;;;;;;12.30;6.67;;;18.00;99.90;;;;;;5010203;28;20212;-73
2022/07/22 01:39:06;;;;;;;11.47;6.93;;;17.90;99.90;;;;;;4975346;28;20535;-74
2022/07/22 01:41:32;;;;;;;8.70;6.80;;;17.90;99.90;;;;;;5010304;28;20594;-73
2022/07/22 01:43:58;;;;;;;9.90;7.23;;;17.90;99.90;;;;;;4992384;28;20936;-73
2022/07/22 01:46:24;;;;;;;7.40;6.67;;;17.80;99.90;;;;;;5009611;28;20326;-73
2022/07/22 01:48:51;;;;;;;10.17;7.00;;;17.80;99.90;;;;;;5009442;28;20209;-73
2022/07/22 01:51:17;;;;;;;8.33;6.50;;;17.80;99.90;;;;;;4991673;28;20435;-73
2022/07/22 01:53:43;;;;;;;10.10;6.47;;;17.80;99.90;;;;;;5009354;28;20435;-73
2022/07/22 01:56:08;;;;;;;11.50;6.60;;;17.80;99.90;;;;;;5009312;28;20227;-73
2022/07/22 01:58:34;;;;;;;8.83;7.17;;;17.70;99.90;;;;;;4991576;28;20242;-73
2022/07/22 02:01:00;;;;;;;12.87;7.60;;;17.60;99.90;;;;;;4991318;28;20193;-73
2022/07/22 02:03:25;;;;;;;10.10;7.10;;;17.50;99.90;;;;;;5009156;28;20192;-73
2022/07/22 02:05:51;;;;;;;10.90;6.70;;;17.50;99.90;;;;;;5009139;28;20186;-73
2022/07/22 02:08:16;;;;;;;9.73;7.30;;;17.50;99.90;;;;;;5009033;28;20691;-73
2022/07/22 02:10:43;;;;;;;8.50;7.07;;;17.50;99.90;;;;;;4991454;28;20190;-74
2022/07/22 02:13:09;;;;;;;7.53;6.83;;;17.50;99.90;;;;;;4991514;28;20844;-74
2022/07/22 02:15:34;;;;;;;14.90;6.70;;;17.40;99.90;;;;;;4991249;28;20439;-74
2022/07/22 02:18:00;;;;;;;8.20;7.43;;;17.40;99.90;;;;;;5008844;28;20728;-74
2022/07/22 02:20:26;;;;;;;7.70;7.00;;;17.40;99.90;;;;;;4990815;28;20193;-75
2022/07/22 02:22:51;;;;;;;9.60;7.23;;;17.40;99.90;;;;;;4990864;28;20457;-74
2022/07/22 02:25:18;;;;;;;10.13;6.70;;;17.30;99.90;;;;;;5008776;28;20179;-74
2022/07/22 02:27:43;;;;;;;9.20;7.87;;;17.30;99.90;;;;;;5008734;28;20287;-74
2022/07/22 02:30:10;;;;;;;10.10;7.37;;;17.30;99.90;;;;;;5008787;28;20857;-74
2022/07/22 02:32:36;;;;;;;12.43;7.30;;;17.10;99.90;;;;;;4990813;28;20192;-74
2022/07/22 02:35:02;;;;;;;10.10;7.10;;;17.20;99.90;;;;;;5008560;28;20446;-74
2022/07/22 02:37:28;;;;;;;12.33;7.60;;;17.10;99.90;;;;;;5008466;28;20572;-73
2022/07/22 02:39:53;;;;;;;12.37;7.93;;;17.10;99.90;;;;;;5008405;28;20514;-74
2022/07/22 02:42:19;;;;;;;9.47;7.77;;;17.00;99.90;;;;;;5009029;28;20188;-75
2022/07/22 02:44:44;;;;;;;8.83;6.33;;;16.90;99.90;;;;;;5009065;28;20187;-73
2022/07/22 02:47:10;;;;;;;10.13;7.43;;;16.90;99.90;;;;;;5009127;28;20681;-73
2022/07/22 02:49:36;;;;;;;8.03;7.30;;;16.90;99.90;;;;;;5008714;28;20199;-74
2022/07/22 02:52:01;;;;;;;10.50;8.70;;;16.80;99.90;;;;;;5008939;28;20230;-73
2022/07/22 02:54:27;;;;;;;9.50;6.80;;;16.80;99.90;;;;;;5009518;28;20204;-72
2022/07/22 02:56:53;;;;;;;11.30;7.57;;;16.90;99.90;;;;;;5008539;28;20248;-72
2022/07/22 02:59:18;;;;;;;8.03;6.67;;;17.00;99.90;;;;;;5009021;28;20646;-72
2022/07/22 03:01:44;;;;;;;9.60;7.40;;;17.10;99.90;;;;;;5008368;28;20189;-73
2022/07/22 03:04:10;;;;;;;9.23;7.37;;;17.10;99.90;;;;;;5008441;28;20379;-74
2022/07/22 03:06:35;;;;;;;9.87;7.30;;;17.20;99.90;;;;;;4994139;28;20188;-74
2022/07/22 03:09:01;;;;;;;10.40;7.20;;;17.10;99.90;;;;;;5012209;28;20258;-74
2022/07/22 03:11:26;;;;;;;12.50;8.10;;;17.10;99.90;;;;;;5012324;28;20199;-74
2022/07/22 03:13:52;;;;;;;8.83;6.77;;;17.10;99.90;;;;;;4994132;28;20204;-74
2022/07/22 03:16:18;;;;;;;8.63;7.57;;;17.10;99.90;;;;;;5011909;28;20552;-75
2022/07/22 03:18:43;;;;;;;7.47;6.63;;;17.10;99.90;;;;;;4994133;28;20202;-73
2022/07/22 03:21:09;;;;;;;10.00;7.37;;;17.20;99.90;;;;;;5011937;28;20473;-72
2022/07/22 03:23:35;;;;;;;8.40;7.13;;;17.20;99.90;;;;;;5011850;28;20184;-73
2022/07/22 03:26:00;;;;;;;13.00;8.87;;;17.20;99.90;;;;;;5012039;28;20186;-73
2022/07/22 03:28:27;;;;;;;16.70;7.20;;;17.20;99.90;;;;;;5011736;28;20206;-72
2022/07/22 03:30:53;;;;;;;11.23;7.60;;;17.20;99.90;;;;;;4994221;28;20301;-73
2022/07/22 03:33:18;;;;;;;8.47;7.70;;;17.10;99.90;;;;;;4977623;28;20618;-73
2022/07/22 03:35:44;;;;;;;12.27;8.30;;;17.20;99.90;;;;;;5011571;28;20202;-73
2022/07/22 03:38:10;;;;;;;11.03;7.30;;;17.10;99.90;;;;;;5011345;28;20213;-73
2022/07/22 03:40:35;;;;;;;8.13;7.20;;;17.10;99.90;;;;;;5011419;28;20348;-76
2022/07/22 03:43:01;;;;;;;8.43;7.30;;;17.10;99.90;;;;;;5011543;28;20670;-74
2022/07/22 03:45:26;;;;;;;17.63;9.23;;;17.00;99.90;;;;;;4993811;28;20187;-76
2022/07/22 03:47:54;;;;;;;8.13;7.40;;;17.00;99.90;;;;;;4993807;28;20216;-76
2022/07/22 03:50:20;;;;;;;9.73;6.97;;;17.00;99.90;;;;;;5011632;28;20207;-74
2022/07/22 03:52:45;;;;;;;9.50;7.90;;;17.00;99.90;;;;;;5010898;28;20432;-74
2022/07/22 03:55:11;;;;;;;10.00;7.37;;;17.00;99.90;;;;;;4992976;28;20430;-74
2022/07/22 03:57:37;;;;;;;8.87;8.00;;;16.90;99.90;;;;;;4992742;28;20231;-74
2022/07/22 04:00:06;;;;;;;9.77;8.10;;;16.80;99.90;;;;;;4993121;28;20194;-74
2022/07/22 04:02:31;;;;;;;7.77;6.97;;;16.80;99.90;;;;;;5010663;28;20189;-75
2022/07/22 04:04:57;;;;;;;9.40;8.00;;;16.90;99.90;;;;;;5010623;28;20960;-75
2022/07/22 04:07:23;;;;;;;12.93;7.90;;;16.80;99.90;;;;;;4976063;28;20926;-75
2022/07/22 04:09:48;;;;;;;10.10;7.70;;;16.90;99.90;;;;;;5009987;28;20198;-74
2022/07/22 04:12:14;;;;;;;8.70;7.80;;;16.90;99.90;;;;;;5010128;28;20196;-74
2022/07/22 04:14:39;;;;;;;8.43;7.67;;;17.00;99.90;;;;;;4992203;28;20196;-74
2022/07/22 04:17:05;;;;;;;11.80;10.17;;;17.00;99.90;;;;;;5008645;28;20227;-75
2022/07/22 04:19:31;;;;;;;11.33;8.40;;;17.00;99.90;;;;;;5009521;28;20212;-75
2022/07/22 04:21:56;;;;;;;10.07;7.60;;;17.10;99.90;;;;;;5009884;28;20218;-74
2022/07/22 04:24:22;;;;;;;11.77;7.77;;;17.00;99.90;;;;;;4991964;28;20188;-75
2022/07/22 04:26:48;;;;;;;11.77;8.27;;;17.10;99.90;;;;;;4975473;28;20213;-74
2022/07/22 04:29:14;;;;;;;9.57;7.70;;;17.20;99.90;;;;;;5009758;28;20195;-75
2022/07/22 04:31:39;;;;;;;9.90;8.83;;;17.20;99.90;;;;;;4992124;28;20588;-75
2022/07/22 04:34:05;;;;;;;13.73;9.90;;;17.30;99.90;;;;;;4992573;28;20439;-75
2022/07/22 04:36:31;;;;;;;13.30;8.57;;;17.30;99.90;;;;;;5009643;28;20693;-75
2022/07/22 04:38:56;;;;;;;8.90;7.57;;;17.30;99.90;;;;;;5009519;28;20204;-75
2022/07/22 04:41:22;;;;;;;13.30;7.60;;;17.30;99.90;;;;;;4991731;28;20182;-74
2022/07/22 04:43:48;;;;;;;9.23;8.13;;;17.40;99.90;;;;;;4991351;28;20184;-75
2022/07/22 04:46:13;;;;;;;8.50;7.40;;;17.40;99.90;;;;;;5009089;28;20222;-75
2022/07/22 04:48:39;;;;;;;10.43;7.97;;;17.50;99.90;;;;;;5009106;28;20217;-74
2022/07/22 04:51:05;;;;;;;8.23;7.43;;;17.50;99.90;;;;;;4991125;28;20198;-74
2022/07/22 04:53:30;;;;;;;8.87;7.97;;;17.60;99.90;;;;;;5009217;28;20189;-75
2022/07/22 04:55:56;;;;;;;10.90;7.40;;;17.70;99.90;;;;;;4975351;28;20869;-74
2022/07/22 04:58:22;;;;;;;10.23;7.23;;;17.70;99.90;;;;;;4991807;28;20616;-75
2022/07/22 05:00:50;;;;;;;10.10;8.00;;;17.90;99.90;;;;;;4991970;28;20496;-75
2022/07/22 05:03:16;;;;;;;9.07;8.10;;;18.00;99.90;;;;;;5009170;28;20375;-74
2022/07/22 05:05:41;;;;;;;13.07;7.83;;;18.10;99.90;;;;;;4991148;28;20962;-75
2022/07/22 05:08:07;;;;;;;9.43;8.13;;;18.20;99.90;;;;;;4991153;28;20205;-75
2022/07/22 05:10:32;;;;;;;8.70;7.80;;;18.20;99.90;;;;;;5008683;28;20185;-75
2022/07/22 05:12:59;;;;;;;12.00;8.00;;;18.30;99.90;;;;;;4990915;28;20182;-74
2022/07/22 05:15:24;;;;;;;10.20;7.50;;;18.40;99.90;;;;;;4990983;28;20187;-75
2022/07/22 05:17:50;;;;;;;13.23;7.00;;;18.60;99.90;;;;;;4974098;28;20487;-75
2022/07/22 05:20:16;;;;;;;9.07;7.50;;;18.60;99.90;;;;;;5008432;28;20643;-75
2022/07/22 05:22:42;;;;;;;10.60;8.17;;;18.70;99.90;;;;;;5008501;28;20189;-74
2022/07/22 05:25:08;;;;;;;14.23;7.90;;;18.80;99.90;;;;;;5008225;28;20427;-75
2022/07/22 05:27:33;;;;;;;8.60;7.80;;;18.90;99.90;;;;;;4973741;28;20255;-75
2022/07/22 05:29:59;;;;;;;14.60;8.20;;;19.10;99.90;;;;;;5008423;28;20953;-75
2022/07/22 05:32:25;;;;;;;9.47;7.67;;;19.20;99.90;;;;;;4990700;28;20217;-75
2022/07/22 05:34:50;;;;;;;9.97;8.13;;;19.20;99.90;;;;;;4974766;28;20227;-75
2022/07/22 05:37:16;;;;;;;15.63;8.17;;;19.30;99.90;;;;;;5008465;28;20228;-74
2022/07/22 05:39:43;;;;;;;13.60;8.03;;;19.40;99.90;;;;;;4990628;28;20210;-75
2022/07/22 05:42:08;;;;;;;11.63;7.90;;;19.40;99.90;;;;;;5010687;28;20233;-76
2022/07/22 05:44:34;;;;;;;10.30;8.63;;;19.50;99.90;;;;;;5010788;28;20429;-74
2022/07/22 05:47:00;;;;;;;10.57;8.53;;;19.60;99.90;;;;;;5009679;28;20686;-74
2022/07/22 05:49:26;;;;;;;10.60;8.20;;;19.70;99.90;;;;;;5010648;28;20185;-74
2022/07/22 05:51:53;;;;;;;9.40;8.03;;;19.70;99.90;;;;;;5010000;28;20265;-74
2022/07/22 05:54:19;;;;;;;16.70;8.20;;;19.80;99.90;;;;;;5005922;28;20440;-75
2022/07/22 05:56:44;;;;;;;13.67;8.60;;;19.80;99.90;;;;;;4991978;28;20475;-75
2022/07/22 05:59:10;;;;;;;11.13;8.50;;;19.90;99.90;;;;;;5009329;28;20820;-74
2022/07/22 06:01:35;;;;;;;11.60;8.37;;;20.00;99.90;;;;;;5009425;28;20201;-74
2022/07/22 06:04:01;;;;;;;14.60;8.43;;;19.90;99.90;;;;;;5008804;28;20189;-75
2022/07/22 06:06:27;;;;;;;16.27;8.50;;;20.00;99.90;;;;;;5014075;28;20189;-77
2022/07/22 06:08:52;;;;;;;10.00;8.53;;;20.10;99.90;;;;;;5035163;28;20221;-78
2022/07/22 06:11:18;;;;;;;12.90;9.70;;;20.20;99.90;;;;;;5026761;28;20195;-75
2022/07/22 06:13:44;;;;;;;12.53;8.67;;;20.30;99.90;;;;;;5012169;28;20179;-74
2022/07/22 06:16:09;;;;;;;12.50;10.73;;;20.40;99.90;;;;;;5011013;28;20221;-75
2022/07/22 06:18:35;;;;;;;15.30;10.40;;;20.40;99.90;;;;;;5012444;28;20209;-75
2022/07/22 06:21:01;;;;;;;17.30;11.93;;;20.40;99.90;;;;;;4975548;28;20196;-74
2022/07/22 06:23:26;;;;;;;11.47;10.13;;;20.50;99.90;;;;;;5008634;28;21274;-74
2022/07/22 06:25:52;;;;;;;12.17;10.83;;;20.70;99.90;;;;;;4990880;28;20274;-74
2022/07/22 06:28:18;;;;;;;11.50;10.27;;;20.70;99.90;;;;;;4990688;28;20211;-75
2022/07/22 06:30:43;;;;;;;11.57;10.37;;;20.80;99.90;;;;;;4990931;28;20725;-76
2022/07/22 06:33:09;;;;;;;13.57;10.90;;;20.80;99.90;;;;;;4974700;28;20188;-75
2022/07/22 06:35:37;;;;;;;12.80;11.57;;;21.00;99.90;;;;;;4990714;28;20181;-74
2022/07/22 06:38:03;;;;;;;13.60;11.23;;;21.10;99.90;;;;;;5008238;28;20233;-75
2022/07/22 06:40:29;;;;;;;12.40;9.70;;;21.20;99.90;;;;;;5010264;28;20488;-75
2022/07/22 06:42:54;;;;;;;13.10;11.10;;;21.30;99.90;;;;;;5012331;28;20219;-75
2022/07/22 06:45:20;;;;;;;12.03;10.63;;;21.40;99.90;;;;;;5012232;28;20749;-76
2022/07/22 06:47:45;;;;;;;13.93;10.63;;;21.40;99.90;;;;;;4994674;28;20215;-77
2022/07/22 06:50:11;;;;;;;11.67;10.40;;;21.50;99.90;;;;;;4978531;28;20228;-75
2022/07/22 06:52:40;;;;;;;13.27;10.20;;;21.50;99.90;;;;;;5012099;28;20263;-75
2022/07/22 06:55:07;;;;;;;11.60;10.43;;;21.50;99.90;;;;;;5012328;28;20224;-76
2022/07/22 06:57:33;;;;;;;12.50;10.60;;;21.50;99.90;;;;;;4978175;28;20526;-75
2022/07/22 06:59:59;;;;;;;11.43;9.93;;;21.60;99.90;;;;;;5012666;28;20424;-75
2022/07/22 07:02:24;;;;;;;14.00;10.37;;;21.50;99.90;;;;;;4978361;28;20239;-76
2022/07/22 07:04:50;;;;;;;12.90;11.07;;;21.60;99.90;;;;;;5012520;28;20797;-76
2022/07/22 07:07:15;;;;;;;11.83;10.37;;;21.70;99.90;;;;;;5012415;28;20216;-75
2022/07/22 07:09:41;;;;;;;14.27;10.50;;;21.80;99.90;;;;;;4994864;28;20225;-76
2022/07/22 07:12:07;;;;;;;13.40;10.33;;;21.80;99.90;;;;;;5012405;28;20205;-76
2022/07/22 07:14:33;;;;;;;13.57;10.30;;;21.90;99.90;;;;;;5012596;28;20570;-76
2022/07/22 07:16:58;;;;;;;11.93;9.73;;;21.90;99.90;;;;;;5012408;28;20555;-76
2022/07/22 07:19:24;;;;;;;10.80;9.70;;;22.00;99.90;;;;;;5012633;28;20656;-75
2022/07/22 07:21:50;;;;;;;15.10;12.30;;;22.00;99.90;;;;;;5012346;28;20187;-75
2022/07/22 07:24:16;;;;;;;10.70;9.70;;;22.00;99.90;;;;;;5012407;28;20183;-75
2022/07/22 07:26:42;;;;;;;13.23;9.43;;;22.10;99.90;;;;;;4994038;28;20431;-76
2022/07/22 07:29:07;;;;;;;12.77;10.30;;;22.10;99.90;;;;;;5011448;28;20192;-75
2022/07/22 07:31:33;;;;;;;12.27;10.13;;;22.10;99.90;;;;;;4993747;28;20225;-75
2022/07/22 07:33:58;;;;;;;11.33;9.37;;;22.10;99.90;;;;;;4993935;28;20281;-75
2022/07/22 07:36:24;;;;;;;13.00;9.97;;;22.20;99.90;;;;;;5011667;28;20801;-76
2022/07/22 07:38:50;;;;;;;11.23;9.90;;;22.30;99.90;;;;;;4993661;28;20216;-75
2022/07/22 07:41:17;;;;;;;16.40;10.70;;;22.20;99.90;;;;;;5011890;28;20175;-75
2022/07/22 07:43:43;;;;;;;10.37;9.33;;;22.40;99.90;;;;;;4994035;28;20521;-76
2022/07/22 07:46:08;;;;;;;9.60;8.60;;;22.50;99.90;;;;;;4977922;28;20513;-75
2022/07/22 07:48:34;;;;;;;15.83;10.50;;;22.50;99.90;;;;;;4978098;28;20584;-75
2022/07/22 07:51:00;;;;;;;14.03;10.63;;;22.60;99.90;;;;;;4994730;28;20617;-75
2022/07/22 07:53:26;;;;;;;16.23;9.83;;;22.50;99.90;;;;;;4994368;28;20673;-75
2022/07/22 07:55:52;;;;;;;12.50;8.40;;;22.40;99.90;;;;;;4995041;28;20809;-75
2022/07/22 07:58:18;;;;;;;12.17;9.60;;;22.60;99.90;;;;;;5012443;28;20447;-75
2022/07/22 08:00:43;;;;;;;15.80;10.53;;;22.60;99.90;;;;;;5012734;28;20675;-76
2022/07/22 08:03:09;;;;;;;9.63;8.63;;;22.60;99.90;;;;;;5013053;28;20407;-75
2022/07/22 08:05:35;;;;;;;14.10;10.10;;;22.70;99.90;;;;;;4996183;28;20183;-75
2022/07/22 08:08:02;;;;;;;14.43;11.10;;;22.90;99.90;;;;;;5012152;28;20467;-76
2022/07/22 08:10:27;;;;;;;16.97;10.77;;;22.90;99.90;;;;;;5012160;28;20330;-76
2022/07/22 08:12:55;;;;;;;11.77;9.73;;;23.00;99.90;;;;;;5011559;28;20500;-76
2022/07/22 08:15:21;;;;;;;14.70;8.87;;;23.00;99.90;;;;;;5011534;28;20185;-76
2022/07/22 08:17:47;;;;;;;12.87;9.50;;;23.10;99.90;;;;;;5010916;28;20861;-76
2022/07/22 08:20:12;;;;;;;12.17;9.33;;;23.20;99.90;;;;;;5010862;28;20179;-76
2022/07/22 08:22:38;;;;;;;10.97;9.13;;;23.40;99.90;;;;;;5011272;28;20576;-77
2022/07/22 08:25:04;;;;;;;11.13;9.30;;;23.50;99.90;;;;;;5011151;28;20257;-75
2022/07/22 08:27:30;;;;;;;11.87;9.20;;;23.60;99.90;;;;;;5011370;28;20268;-76
2022/07/22 08:29:56;;;;;;;11.20;9.30;;;23.70;99.90;;;;;;4994013;28;20429;-76
2022/07/22 08:32:22;;;;;;;9.80;8.57;;;23.80;99.90;;;;;;5011292;28;20192;-75
2022/07/22 08:34:47;;;;;;;13.33;9.00;;;23.90;99.90;;;;;;5011265;28;20194;-76
2022/07/22 08:37:13;;;;;;;15.73;9.33;;;24.10;99.90;;;;;;5010962;28;20295;-76
2022/07/22 08:39:39;;;;;;;11.60;8.80;;;24.30;99.90;;;;;;5011030;28;20530;-76
2022/07/22 08:42:05;;;;;;;13.13;8.70;;;24.40;99.90;;;;;;5011044;28;20210;-75
2022/07/22 08:44:31;;;;;;;15.43;9.47;;;24.50;99.90;;;;;;5010922;28;20192;-77
2022/07/22 08:47:01;;;;;;;10.33;8.90;;;24.70;99.90;;;;;;5010764;28;20208;-76
2022/07/22 08:49:27;;;;;;;10.30;9.20;;;24.80;99.90;;;;;;5010456;28;20416;-76
2022/07/22 08:51:53;;;;;;;9.93;7.90;;;24.90;99.90;;;;;;5009925;28;20426;-76
2022/07/22 08:54:19;;;;;;;14.50;8.93;;;25.10;99.90;;;;;;5010102;28;20188;-76
2022/07/22 08:56:49;;;;;;;9.10;8.03;;;25.30;99.90;;;;;;5010148;28;20459;-76
2022/07/22 08:59:15;;;;;;;9.47;8.20;;;25.40;99.90;;;;;;4992931;28;20925;-76
2022/07/22 09:02:04;;;;;;;10.00;9.00;;;25.60;99.90;;;;;;4992565;28;20431;-76
2022/07/22 09:04:31;;;;;;;16.40;8.57;;;25.70;99.90;;;;;;4992585;28;20438;-76
2022/07/22 09:06:57;;;;;;;9.33;8.33;;;25.90;99.90;;;;;;4992395;28;20442;-76
2022/07/22 09:09:33;;;;;;;9.57;7.80;;;26.00;99.90;;;;;;5010272;28;20408;-77
2022/07/22 09:12:08;;;;;;;11.70;8.67;;;26.20;99.90;;;;;;5010105;28;20499;-76
2022/07/22 09:14:49;;;;;;;10.80;8.47;;;26.40;99.90;;;;;;4991783;28;20423;-75
2022/07/22 09:17:24;;;;;;;14.07;9.27;;;26.50;99.90;;;;;;5009238;28;20470;-76
2022/07/22 09:19:50;;;;;;;11.33;9.03;;;26.60;99.90;;;;;;5009514;28;20414;-76
2022/07/22 09:22:34;;;;;;;9.70;7.87;;;26.90;99.90;;;;;;4991443;28;20420;-76
2022/07/22 09:25:16;;;;;;;11.03;8.27;;;27.20;99.90;;;;;;5009194;28;20228;-76
2022/07/22 09:27:42;;;;;;;10.50;9.10;;;27.50;99.90;;;;;;4991471;28;20581;-76
2022/07/22 09:30:15;;;;;;;15.13;8.83;;;27.60;99.90;;;;;;5009224;28;21288;-76
2022/07/22 09:32:43;;;;;;;13.03;8.23;;;27.80;99.90;;;;;;4991335;28;20576;-75
2022/07/22 09:35:15;;;;;;;10.07;7.70;;;28.10;99.90;;;;;;4991587;28;20801;-76
2022/07/22 09:38:09;;;;;;;13.50;9.07;;;28.30;99.90;;;;;;4991600;28;20480;-76
2022/07/22 09:40:46;;;;;;;13.10;9.53;;;28.50;99.90;;;;;;5005329;28;20877;-75
2022/07/22 09:43:17;;;;;;;12.20;8.13;;;28.80;99.90;;;;;;4991240;28;20448;-76
2022/07/22 09:45:47;;;;;;;10.47;7.77;;;28.90;99.90;;;;;;5008652;28;20421;-76
2022/07/22 09:48:13;;;;;;;12.23;7.97;;;29.10;99.30;;;;;;5008647;28;21040;-76
2022/07/22 09:50:39;;;;;;;9.43;7.90;;;29.50;98.10;;;;;;5008717;28;20535;-75
2022/07/22 09:53:04;;;;;;;9.47;7.30;;;29.70;97.70;;;;;;5010311;28;20181;-77
2022/07/22 09:55:32;;;;;;;10.30;7.50;;;29.80;96.80;;;;;;4991798;28;20193;-76
2022/07/22 09:57:58;;;;;;;8.80;7.27;;;30.00;97.20;;;;;;5008910;28;20749;-76
2022/07/22 10:00:26;;;;;;;8.47;7.57;;;30.30;96.30;;;;;;5009079;28;20503;-76
2022/07/22 10:02:59;;;;;;;9.73;8.83;;;30.30;96.20;;;;;;4991244;28;20416;-76
2022/07/22 10:05:31;;;;;;;8.47;7.67;;;30.30;94.50;;;;;;5008976;28;20427;-76
2022/07/22 10:07:58;;;;;;;7.80;7.10;;;30.40;95.60;;;;;;5008956;28;20948;-77
2022/07/22 10:10:26;;;;;;;8.53;7.63;;;30.80;95.00;;;;;;4975327;28;20424;-77
2022/07/22 10:12:54;;;;;;;8.17;7.30;;;30.90;94.70;;;;;;4991128;28;20842;-77
2022/07/22 10:15:21;;;;;;;7.97;7.37;;;30.90;93.50;;;;;;5007855;28;20478;-77
2022/07/22 10:17:49;;;;;;;8.03;7.20;;;31.20;93.60;;;;;;4991276;28;20477;-77
2022/07/22 10:20:29;;;;;;;8.90;7.80;;;31.20;92.60;;;;;;5008814;28;20427;-77
2022/07/22 10:23:01;;;;;;;7.80;7.10;;;31.30;91.60;;;;;;4991167;28;20408;-77
2022/07/22 10:25:30;;;;;;;8.43;7.63;;;31.30;91.70;;;;;;4990878;28;20428;-76
2022/07/22 10:28:04;;;;;;;9.90;7.33;;;31.70;91.20;;;;;;5009208;28;20431;-76
2022/07/22 10:30:43;;;;;;;7.80;7.20;;;32.00;91.60;;;;;;5008194;28;20991;-76
2022/07/22 10:33:12;;;;;;;7.13;6.50;;;31.80;90.70;;;;;;4992004;28;20456;-76
2022/07/22 10:36:02;;;;;;;8.93;7.87;;;31.70;92.00;;;;;;5008324;28;20840;-75
2022/07/22 10:38:29;;;;;;;7.90;7.13;;;31.40;91.60;;;;;;5008578;28;20448;-75
2022/07/22 10:40:57;;;;;;;8.00;6.87;;;31.30;92.20;;;;;;5008154;28;20443;-77
2022/07/22 10:43:27;;;;;;;8.13;7.33;;;31.30;92.20;;;;;;5008119;28;20998;-76
2022/07/22 10:46:06;;;;;;;10.93;7.87;;;31.20;92.00;;;;;;5008024;28;20420;-76
2022/07/22 10:48:32;;;;;;;9.40;7.90;;;31.30;92.50;;;;;;4991117;28;20444;-75
2022/07/22 10:51:15;;;;;;;8.27;7.40;;;31.30;91.50;;;;;;5008213;28;20427;-75
2022/07/22 10:54:02;;;;;;;8.00;7.10;;;31.20;91.80;;;;;;5007966;28;20181;-76
2022/07/22 10:56:35;;;;;;;7.40;6.80;;;31.20;91.50;;;;;;5007946;28;20459;-76
2022/07/22 10:59:14;;;;;;;7.73;6.93;;;31.30;91.20;;;;;;5007979;28;20427;-76
2022/07/22 11:01:48;;;;;;;13.17;6.90;;;31.40;92.50;;;;;;5008063;28;21016;-75
2022/07/22 11:04:16;;;;;;;8.00;7.30;;;31.40;90.90;;;;;;4990065;28;20427;-75
2022/07/22 11:06:42;;;;;;;7.37;6.77;;;31.30;91.10;;;;;;5008048;28;20424;-75
2022/07/22 11:09:16;;;;;;;8.60;6.90;;;31.40;92.00;;;;;;5007963;28;20475;-75
2022/07/22 11:11:53;;;;;;;8.13;7.33;;;31.40;91.10;;;;;;4990136;28;20519;-75
2022/07/22 11:14:36;;;;;;;10.43;8.13;;;31.50;90.20;;;;;;4990091;28;20434;-76
2022/07/22 11:17:11;;;;;;;7.97;7.17;;;31.30;87.20;;;;;;5007885;28;20514;-74
2022/07/22 11:19:38;;;;;;;8.30;7.40;;;31.40;90.50;;;;;;5007817;28;20419;-75
2022/07/22 11:22:15;;;;;;;8.13;7.33;;;31.50;90.40;;;;;;4973765;28;20971;-75
2022/07/22 11:24:41;;;;;;;15.47;8.10;;;31.50;89.80;;;;;;4989855;28;20431;-75
2022/07/22 11:27:21;;;;;;;9.30;8.40;;;31.50;90.40;;;;;;5010549;28;20526;-76
2022/07/22 11:29:52;;;;;;;8.97;7.40;;;31.60;89.70;;;;;;4993590;28;20807;-76
2022/07/22 11:32:23;;;;;;;10.90;7.60;;;31.50;87.40;;;;;;4977581;28;20438;-76
2022/07/22 11:34:48;;;;;;;7.80;7.07;;;31.40;89.00;;;;;;5011463;28;20434;-75
2022/07/22 11:37:16;;;;;;;9.00;7.23;;;31.50;90.00;;;;;;5011405;28;20475;-75
2022/07/22 11:39:42;;;;;;;13.10;7.10;;;31.60;89.70;;;;;;5011936;28;20199;-76
2022/07/22 11:42:08;;;;;;;8.03;7.27;;;31.70;89.20;;;;;;5012197;28;20412;-76
2022/07/22 11:44:36;;;;;;;11.00;6.43;;;31.70;89.50;;;;;;5011328;28;20283;-76
2022/07/22 11:47:04;;;;;;;9.60;7.03;;;31.70;89.10;;;;;;4992995;28;20451;-75
2022/07/22 11:49:35;;;;;;;9.47;7.53;;;31.70;87.90;;;;;;4993177;28;20884;-75
2022/07/22 11:52:02;;;;;;;7.10;6.50;;;31.60;87.50;;;;;;4993222;28;20424;-75
2022/07/22 11:54:28;;;;;;;8.17;7.37;;;31.70;87.40;;;;;;5010989;28;20463;-78
2022/07/22 11:56:54;;;;;;;7.30;6.60;;;31.70;87.30;;;;;;4993602;28;20653;-78
2022/07/22 11:59:20;;;;;;;7.00;6.30;;;31.80;86.50;;;;;;5010721;28;20725;-77
2022/07/22 12:01:47;;;;;;;7.50;6.87;;;31.90;85.60;;;;;;5011187;28;20452;-77
2022/07/22 12:04:16;;;;;;;10.23;7.33;;;31.90;84.20;;;;;;5010675;28;20189;-78
2022/07/22 12:06:43;;;;;;;9.97;7.03;;;31.90;85.50;;;;;;5010547;28;20424;-77
2022/07/22 12:09:15;;;;;;;10.27;7.60;;;31.80;83.70;;;;;;4992947;28;20416;-76
2022/07/22 12:11:44;;;;;;;7.67;6.90;;;31.90;84.00;;;;;;4992760;28;20432;-77
2022/07/22 12:14:12;;;;;;;7.80;7.13;;;31.90;81.30;;;;;;5010493;28;20921;-77
2022/07/22 12:16:39;;;;;;;9.60;7.53;;;31.90;80.70;;;;;;4992605;28;21110;-78
2022/07/22 12:19:06;;;;;;;8.57;6.90;;;31.80;81.00;;;;;;4992355;28;20478;-77
2022/07/22 12:21:36;;;;;;;7.60;6.90;;;31.70;82.50;;;;;;5010424;28;20547;-79
2022/07/22 12:24:04;;;;;;;7.20;6.40;;;31.70;81.10;;;;;;4992653;28;20423;-78
2022/07/22 12:26:39;;;;;;;7.13;6.53;;;31.90;82.00;;;;;;4992900;28;20432;-77
2022/07/22 12:29:18;;;;;;;9.10;6.50;;;31.90;82.00;;;;;;4976956;28;20959;-77
2022/07/22 12:31:58;;;;;;;7.77;7.10;;;32.00;80.60;;;;;;5010469;28;20412;-77
2022/07/22 12:34:39;;;;;;;9.13;6.83;;;32.00;82.40;;;;;;5016310;28;20392;-79
2022/07/22 12:37:21;;;;;;;7.10;6.40;;;31.90;80.70;;;;;;4995878;28;20482;-78
2022/07/22 12:40:09;;;;;;;8.90;6.73;;;32.10;83.60;;;;;;4994847;28;20542;-80
2022/07/22 12:42:47;;;;;;;9.00;6.97;;;31.90;82.00;;;;;;4996409;28;20420;-79